Time;durP1;ratioP1;P1;durP2;ratioP2;P2;SDS_P1;SDS_P2;PMS_P1;PMS_P2;Temp;Humidity;BMP_temperature;BMP_pressure;BME280_temperature;BME280_humidity;BME280_pressure;Samples;Min_cycle;Max_cycle;Signal;HPM_P1;HPM_P2
2022/05/16 00:01:53;;;;;;;4.10;3.20;;;;;;;17.33;59.90;98054.66;5054036;28;20221;-72
2022/05/16 00:04:20;;;;;;;4.23;3.37;;;;;;;17.24;59.80;98048.97;5054004;28;20281;-72
2022/05/16 00:06:47;;;;;;;4.23;3.10;;;;;;;17.11;60.64;98046.78;5053903;28;20211;-71
2022/05/16 00:09:14;;;;;;;4.67;2.83;;;;;;;17.14;60.98;98050.81;5053926;28;20229;-73
2022/05/16 00:11:40;;;;;;;3.73;2.77;;;;;;;16.98;61.42;98052.59;5053627;28;20213;-74
2022/05/16 00:14:07;;;;;;;4.20;2.83;;;;;;;16.91;61.78;98043.94;5053977;28;20228;-74
2022/05/16 00:16:34;;;;;;;5.93;3.43;;;;;;;17.04;60.28;98040.81;5053869;28;20235;-72
2022/05/16 00:19:00;;;;;;;4.23;3.03;;;;;;;16.97;61.76;98042.91;5053770;28;20225;-71
2022/05/16 00:21:27;;;;;;;5.10;3.17;;;;;;;16.96;61.00;98040.50;5053789;28;20252;-72
2022/05/16 00:23:53;;;;;;;3.97;3.07;;;;;;;16.96;61.63;98043.19;5053786;28;20232;-72
2022/05/16 00:26:19;;;;;;;5.70;3.30;;;;;;;16.92;61.77;98045.56;5053729;28;20215;-72
2022/05/16 00:28:46;;;;;;;4.53;3.00;;;;;;;16.98;61.21;98036.47;5053624;28;20232;-72
2022/05/16 00:31:12;;;;;;;4.53;3.17;;;;;;;16.94;61.55;98026.50;5053410;28;20201;-71
2022/05/16 00:33:38;;;;;;;5.23;2.90;;;;;;;17.06;60.72;98022.53;5053632;28;20232;-71
2022/05/16 00:36:05;;;;;;;4.27;2.90;;;;;;;17.04;60.74;98022.00;5053638;28;20219;-72
2022/05/16 00:38:31;;;;;;;5.73;2.87;;;;;;;17.10;61.20;98033.59;5053501;28;20229;-72
2022/05/16 00:41:00;;;;;;;5.30;2.90;;;;;;;17.09;61.08;98026.56;5053488;28;20213;-71
2022/05/16 00:43:52;;;;;;;4.67;2.70;;;;;;;17.01;61.53;98025.19;5053522;28;20212;-71
2022/05/16 00:46:21;;;;;;;6.13;2.70;;;;;;;17.01;61.29;98027.88;5053525;28;20193;-72
2022/05/16 00:48:48;;;;;;;3.83;2.50;;;;;;;16.96;61.86;98017.13;5053402;28;20221;-72
2022/05/16 00:51:36;;;;;;;3.40;2.67;;;;;;;16.88;61.70;98020.28;5053486;28;20212;-71
2022/05/16 00:54:11;;;;;;;4.17;2.60;;;;;;;16.81;61.60;98008.97;5053503;28;20189;-72
2022/05/16 00:56:38;;;;;;;3.70;2.70;;;;;;;16.72;62.83;98010.53;5036043;28;20196;-71
2022/05/16 00:59:05;;;;;;;5.27;2.97;;;;;;;16.69;62.25;97999.50;5052986;28;20225;-72
2022/05/16 01:07:00;;;;;;;3.43;2.70;;;;;;;16.59;64.04;98005.63;5053331;28;20179;-71
2022/05/16 01:09:26;;;;;;;3.83;2.80;;;;;;;16.56;63.18;98008.00;5053157;28;20212;-71
2022/05/16 01:11:54;;;;;;;3.70;2.30;;;;;;;16.50;62.57;97999.09;5053232;28;20212;-72
2022/05/16 01:14:53;;;;;;;5.47;2.50;;;;;;;16.50;63.79;98001.78;5053250;28;20219;-71
2022/05/16 01:17:20;;;;;;;4.60;2.50;;;;;;;16.57;63.10;97999.72;5053118;28;20221;-71
2022/05/16 01:19:47;;;;;;;6.13;2.57;;;;;;;16.53;63.16;97997.78;5053153;28;20203;-71
2022/05/16 01:22:29;;;;;;;4.83;2.70;;;;;;;16.45;62.21;97988.34;5052762;28;20695;-71
2022/05/16 01:24:57;;;;;;;4.50;2.80;;;;;;;16.41;62.83;97989.09;5053133;28;20214;-72
2022/05/16 01:27:24;;;;;;;4.50;2.50;;;;;;;16.37;63.52;97988.78;5053018;28;20232;-71
2022/05/16 01:29:50;;;;;;;2.90;2.50;;;;;;;16.35;63.31;97993.59;5052845;28;20216;-71
2022/05/16 01:32:18;;;;;;;3.87;2.63;;;;;;;16.31;64.90;97995.19;5053105;28;20197;-71
2022/05/16 01:34:45;;;;;;;3.87;2.40;;;;;;;16.32;65.22;97993.28;5053069;28;20209;-71
2022/05/16 01:37:13;;;;;;;6.93;2.80;;;;;;;16.24;64.82;97999.94;5052950;28;20231;-72
2022/05/16 01:39:39;;;;;;;3.93;2.60;;;;;;;16.28;65.21;97995.69;5053018;28;20205;-72
2022/05/16 01:42:05;;;;;;;3.67;2.53;;;;;;;16.24;64.42;97994.56;5053033;28;20221;-71
2022/05/16 01:44:32;;;;;;;3.30;2.53;;;;;;;16.27;65.68;97991.41;5056758;28;20201;-71
2022/05/16 01:46:58;;;;;;;6.30;2.80;;;;;;;16.32;64.77;97996.78;5056663;28;20205;-72
2022/05/16 01:49:24;;;;;;;3.30;2.83;;;;;;;16.30;64.68;97998.13;5056671;28;20205;-71
2022/05/16 01:51:51;;;;;;;2.83;2.53;;;;;;;16.25;65.44;98001.59;5056636;28;20209;-71
2022/05/16 01:54:17;;;;;;;6.07;3.00;;;;;;;16.21;65.73;98000.47;5056563;28;20201;-71
2022/05/16 01:56:44;;;;;;;6.57;3.17;;;;;;;16.19;65.84;98004.47;5056535;28;20210;-71
2022/05/16 01:59:11;;;;;;;3.40;2.70;;;;;;;16.19;65.10;97999.91;5056456;28;20248;-71
2022/05/16 02:01:37;;;;;;;3.67;3.00;;;;;;;16.33;63.90;98013.72;5056379;28;20225;-71
2022/05/16 02:04:03;;;;;;;4.67;2.93;;;;;;;16.29;65.67;98010.72;5056435;28;20232;-72
2022/05/16 02:06:31;;;;;;;5.47;2.83;;;;;;;16.28;65.72;98008.31;5056370;28;20201;-71
2022/05/16 02:08:57;;;;;;;4.50;2.17;;;;;;;16.35;63.26;98015.06;5055942;28;20647;-72
2022/05/16 02:11:24;;;;;;;3.60;2.47;;;;;;;16.34;63.78;98009.97;5055946;28;20214;-71
2022/05/16 02:13:50;;;;;;;4.03;2.63;;;;;;;16.32;64.52;98020.13;5056188;28;20209;-71
2022/05/16 02:16:17;;;;;;;3.10;2.40;;;;;;;16.34;63.57;98005.41;5055832;28;20687;-71
2022/05/16 02:18:43;;;;;;;4.50;2.40;;;;;;;16.34;64.42;97999.22;5056037;28;20229;-72
2022/05/16 02:26:38;;;;;;;3.47;2.23;;;;;;;16.20;65.24;97990.00;5055850;28;20176;-72
2022/05/16 02:29:04;;;;;;;3.63;2.57;;;;;;;16.15;64.17;97990.75;5055576;28;20232;-72
2022/05/16 02:31:31;;;;;;;4.63;2.13;;;;;;;16.17;65.40;97995.84;5056445;28;20214;-71
2022/05/16 02:33:57;;;;;;;3.80;2.23;;;;;;;16.14;64.49;97999.88;5055519;28;20660;-71
2022/05/16 02:36:23;;;;;;;3.47;2.37;;;;;;;16.12;64.13;97999.31;5055431;28;20206;-71
2022/05/16 02:38:50;;;;;;;4.40;2.60;;;;;;;16.11;64.17;97997.69;5055356;28;20232;-71
2022/05/16 02:41:16;;;;;;;3.00;2.30;;;;;;;16.08;65.43;97998.22;5055623;28;20213;-71
2022/05/16 02:43:42;;;;;;;3.77;2.27;;;;;;;16.07;65.19;97999.28;5055674;28;20205;-71
2022/05/16 02:46:09;;;;;;;4.97;2.50;;;;;;;16.10;65.38;98004.13;5055586;28;20222;-71
2022/05/16 02:48:35;;;;;;;3.03;2.50;;;;;;;16.19;64.18;97996.44;5055530;28;20226;-71
2022/05/16 02:51:01;;;;;;;2.57;2.10;;;;;;;16.18;64.11;97992.94;5055550;28;20252;-71
2022/05/16 02:53:28;;;;;;;3.47;2.23;;;;;;;16.13;64.75;97992.06;5055303;28;20563;-71
2022/05/16 02:55:54;;;;;;;7.77;2.00;;;;;;;16.15;63.35;97998.78;5055393;28;20212;-71
2022/05/16 02:58:20;;;;;;;4.57;2.10;;;;;;;16.11;63.69;98004.94;5055352;28;20224;-71
2022/05/16 03:00:47;;;;;;;4.30;2.30;;;;;;;16.00;63.87;98006.72;5055208;28;20209;-71
2022/05/16 03:03:13;;;;;;;5.20;2.27;;;;;;;15.94;64.33;98005.06;5055166;28;20229;-71
2022/05/16 03:05:39;;;;;;;2.97;2.10;;;;;;;15.93;67.05;97999.94;5055188;28;20212;-71
2022/05/16 03:08:06;;;;;;;4.83;2.30;;;;;;;15.99;64.73;98012.31;5055086;28;20232;-71
2022/05/16 03:10:32;;;;;;;3.87;2.10;;;;;;;16.05;64.69;98019.38;5054783;28;20213;-72
2022/05/16 03:12:59;;;;;;;3.93;2.27;;;;;;;16.04;64.33;98029.28;5054981;28;20575;-72
2022/05/16 03:15:29;;;;;;;4.23;2.40;;;;;;;16.04;64.77;98023.91;5054480;28;20625;-71
2022/05/16 03:17:55;;;;;;;3.50;2.10;;;;;;;16.15;64.13;98030.19;5054651;28;20228;-71
2022/05/16 03:20:22;;;;;;;3.13;2.20;;;;;;;16.05;64.18;98022.84;5054879;28;20205;-71
2022/05/16 03:22:48;;;;;;;3.63;2.03;;;;;;;16.01;65.34;98024.41;5054792;28;20232;-71
2022/05/16 03:25:16;;;;;;;3.00;2.00;;;;;;;16.05;65.58;98011.31;5054376;28;20209;-71
2022/05/16 03:27:42;;;;;;;6.10;2.27;;;;;;;16.08;64.42;98025.03;5054703;28;20231;-71
2022/05/16 03:30:10;;;;;;;3.87;2.20;;;;;;;16.09;64.87;98021.28;5054700;28;20212;-71
2022/05/16 03:32:37;;;;;;;3.53;2.20;;;;;;;16.10;66.22;98017.53;5054209;28;20660;-71
2022/05/16 03:35:04;;;;;;;5.50;2.20;;;;;;;16.17;65.49;98020.81;5054417;28;20212;-71
2022/05/16 03:37:30;;;;;;;4.47;2.23;;;;;;;16.34;62.79;98016.16;5053892;28;20588;-71
2022/05/16 03:42:40;;;;;;;4.80;2.00;;;;;;;16.51;62.20;98016.03;5054099;28;20331;-71
2022/05/16 03:45:07;;;;;;;3.40;2.40;;;;;;;16.52;63.12;98013.06;5054028;28;20300;-72
2022/05/16 03:47:33;;;;;;;3.30;2.00;;;;;;;16.54;62.39;98024.38;5053972;28;20221;-72
2022/05/16 03:50:00;;;;;;;5.60;2.27;;;;;;;16.55;62.58;98027.88;5054251;28;20211;-71
2022/05/16 03:52:26;;;;;;;3.43;2.07;;;;;;;16.54;62.95;98029.75;5054101;28;20267;-72
2022/05/16 03:54:57;;;;;;;4.23;2.07;;;;;;;16.50;63.56;98034.00;5054167;28;20217;-71
2022/05/16 03:57:24;;;;;;;6.93;2.27;;;;;;;16.48;64.18;98038.81;5054127;28;20255;-71
2022/05/16 03:59:50;;;;;;;3.70;2.30;;;;;;;16.42;65.02;98039.03;5054129;28;20205;-71
2022/05/16 04:02:17;;;;;;;3.83;2.43;;;;;;;16.36;65.81;98043.50;5053931;28;20221;-72
2022/05/16 04:04:43;;;;;;;9.20;2.40;;;;;;;16.34;66.39;98039.47;5053379;28;20670;-71
2022/05/16 04:07:10;;;;;;;4.63;2.67;;;;;;;16.30;65.95;98041.03;5053434;28;20264;-71
2022/05/16 04:09:36;;;;;;;3.60;2.83;;;;;;;16.37;64.33;98041.66;5053873;28;20201;-71
2022/05/16 04:12:03;;;;;;;3.40;2.93;;;;;;;16.40;64.92;98044.66;5053911;28;20209;-71
2022/05/16 04:14:29;;;;;;;5.17;2.73;;;;;;;16.42;66.71;98047.09;5053911;28;20209;-71
2022/05/16 04:16:58;;;;;;;6.10;2.90;;;;;;;16.43;65.72;98054.88;5053647;28;20399;-71
2022/05/16 04:19:24;;;;;;;3.97;2.43;;;;;;;16.50;65.07;98054.66;5053760;28;20261;-71
2022/05/16 04:21:50;;;;;;;3.97;2.93;;;;;;;16.51;65.68;98058.97;5053234;28;20228;-71
2022/05/16 04:24:17;;;;;;;5.40;3.00;;;;;;;16.55;65.59;98057.41;5053502;28;20213;-71
2022/05/16 04:26:43;;;;;;;9.50;3.53;;;;;;;16.57;65.33;98056.06;5054248;28;20205;-71
2022/05/16 04:29:10;;;;;;;6.83;3.10;;;;;;;16.45;73.72;98063.47;5053196;28;20229;-71
2022/05/16 04:31:36;;;;;;;6.87;3.80;;;;;;;16.21;77.91;98058.66;5053132;28;20684;-72
2022/05/16 04:34:09;;;;;;;7.47;3.30;;;;;;;16.03;82.75;98059.84;5053059;28;20664;-72
2022/05/16 04:36:35;;;;;;;5.17;3.23;;;;;;;15.98;83.92;98057.13;5053459;28;20196;-72
2022/05/16 04:39:02;;;;;;;6.77;3.53;;;;;;;15.78;84.96;98062.25;5053791;28;20229;-72
2022/05/16 04:44:12;;;;;;;6.63;4.13;;;;;;;15.60;85.71;98053.75;5053286;28;20197;-72
2022/05/16 04:46:38;;;;;;;6.87;3.60;;;;;;;15.62;87.40;98057.78;5053170;28;20256;-72
2022/05/16 04:49:05;;;;;;;6.80;3.77;;;;;;;15.73;90.04;98062.19;5052974;28;20225;-72
2022/05/16 04:51:32;;;;;;;8.17;3.90;;;;;;;15.71;87.57;98064.34;5053292;28;20209;-73
2022/05/16 04:53:59;;;;;;;6.20;3.83;;;;;;;15.76;89.80;98066.25;5052741;28;20244;-72
2022/05/16 04:56:25;;;;;;;5.53;3.50;;;;;;;15.76;90.20;98064.38;5052798;28;20217;-72
2022/05/16 04:58:51;;;;;;;9.23;3.83;;;;;;;15.77;90.49;98076.72;5052696;28;20229;-72
2022/05/16 05:01:18;;;;;;;5.03;3.70;;;;;;;15.79;92.01;98079.16;5052925;28;20616;-72
2022/05/16 05:03:44;;;;;;;7.07;3.90;;;;;;;15.83;91.88;98075.69;5052738;28;20225;-72
2022/05/16 05:06:11;;;;;;;4.97;3.63;;;;;;;15.84;92.98;98071.16;5052012;28;20570;-72
2022/05/16 05:08:37;;;;;;;5.53;3.70;;;;;;;15.86;92.45;98066.34;5052773;28;20229;-72
2022/05/16 05:16:32;;;;;;;6.60;3.57;;;;;;;16.06;90.16;98069.25;5052834;28;20177;-72
2022/05/16 05:18:58;;;;;;;6.53;3.80;;;;;;;16.13;88.98;98068.00;5056072;28;20221;-71
2022/05/16 05:21:24;;;;;;;4.93;3.60;;;;;;;16.21;89.50;98070.22;5056545;28;20211;-71
2022/05/16 05:23:52;;;;;;;6.73;3.73;;;;;;;16.22;88.64;98062.97;5055658;28;20228;-71
2022/05/16 05:26:18;;;;;;;5.40;3.60;;;;;;;16.30;84.58;98071.38;5055868;28;20259;-72
2022/05/16 05:28:44;;;;;;;7.67;3.80;;;;;;;16.42;85.00;98073.91;5055992;28;20232;-71
2022/05/16 05:31:13;;;;;;;8.83;3.80;;;;;;;16.48;84.95;98079.06;5056416;28;20291;-73
2022/05/16 05:33:39;;;;;;;6.13;3.40;;;;;;;16.54;78.71;98086.09;5056168;28;20205;-72
2022/05/16 05:36:06;;;;;;;8.07;3.90;;;;;;;16.58;84.78;98073.78;5056000;28;20700;-72
2022/05/16 05:38:32;;;;;;;7.80;4.00;;;;;;;16.57;83.78;98082.91;5056031;28;20225;-71
2022/05/16 05:40:59;;;;;;;9.07;4.27;;;;;;;16.60;85.84;98082.38;5056489;28;20271;-71
2022/05/16 05:43:25;;;;;;;6.87;4.10;;;;;;;16.56;84.75;98081.28;5056025;28;20562;-71
2022/05/16 05:45:51;;;;;;;7.00;3.70;;;;;;;16.60;79.29;98077.00;5056167;28;20212;-71
2022/05/16 05:48:18;;;;;;;7.60;3.67;;;;;;;16.70;80.65;98082.44;5055606;28;20248;-71
2022/05/16 05:50:44;;;;;;;5.93;3.90;;;;;;;16.75;82.04;98087.06;5056108;28;20200;-71
2022/05/16 05:53:10;;;;;;;8.00;3.60;;;;;;;16.81;75.27;98088.72;5056022;28;20197;-71
2022/05/16 05:55:37;;;;;;;6.70;3.83;;;;;;;16.83;77.04;98091.97;5055936;28;20205;-71
2022/05/16 05:58:03;;;;;;;8.63;3.97;;;;;;;16.89;80.06;98101.66;5055888;28;20236;-71
2022/05/16 06:00:30;;;;;;;6.60;3.90;;;;;;;16.94;80.77;98105.22;5056025;28;20205;-71
2022/05/16 06:02:56;;;;;;;7.90;4.07;;;;;;;16.97;84.56;98096.63;5055769;28;20400;-71
2022/05/16 06:05:23;;;;;;;6.47;3.90;;;;;;;16.95;84.33;98104.13;5055532;28;20661;-71
2022/05/16 06:07:49;;;;;;;6.43;4.43;;;;;;;17.03;83.13;98108.22;5055616;28;20229;-70
2022/05/16 06:10:16;;;;;;;6.27;3.77;;;;;;;17.05;83.16;98112.25;5055477;28;20213;-70
2022/05/16 06:12:43;;;;;;;7.10;4.07;;;;;;;17.06;78.16;98100.44;5055653;28;20198;-70
2022/05/16 06:15:10;;;;;;;8.53;3.90;;;;;;;17.25;73.74;98111.59;5055647;28;20251;-70
2022/05/16 06:17:37;;;;;;;9.07;3.80;;;;;;;17.34;75.93;98115.41;5055475;28;20235;-70
2022/05/16 06:20:05;;;;;;;6.03;4.40;;;;;;;17.33;79.82;98119.94;5055578;28;20210;-71
2022/05/16 06:22:34;;;;;;;8.97;3.70;;;;;;;17.40;73.97;98122.44;5055453;28;20228;-70
2022/05/16 06:27:45;;;;;;;5.70;3.40;;;;;;;17.68;72.07;98127.41;5047575;28;20240;-70
2022/05/16 06:30:15;;;;;;;5.27;3.53;;;;;;;17.70;73.38;98128.81;5055228;28;20209;-69
2022/05/16 06:32:42;;;;;;;8.50;4.20;;;;;;;17.65;77.47;98131.44;5054383;28;20205;-69
2022/05/16 06:35:09;;;;;;;6.03;3.50;;;;;;;17.63;79.04;98133.59;5055006;28;20576;-69
2022/05/16 06:37:35;;;;;;;6.70;3.80;;;;;;;17.65;77.20;98150.25;5054818;28;20711;-68
2022/05/16 06:40:02;;;;;;;7.67;3.53;;;;;;;17.80;74.70;98144.16;5055389;28;20205;-68
2022/05/16 06:42:28;;;;;;;5.67;3.33;;;;;;;18.04;72.48;98142.63;5055307;28;20228;-68
2022/05/16 06:44:55;;;;;;;4.80;3.43;;;;;;;18.28;69.24;98139.19;5055046;28;20296;-68
2022/05/16 06:47:22;;;;;;;3.60;2.90;;;;;;;18.51;67.98;98136.03;5054813;28;20289;-68
2022/05/16 06:49:48;;;;;;;7.33;3.00;;;;;;;18.69;68.76;98142.81;5054881;28;20224;-67
2022/05/16 06:52:16;;;;;;;4.97;3.17;;;;;;;18.79;67.47;98142.81;5055022;28;20237;-68
2022/05/16 06:54:42;;;;;;;6.47;2.90;;;;;;;18.80;67.42;98147.94;5054461;28;20240;-69
2022/05/16 06:57:09;;;;;;;7.83;3.13;;;;;;;18.89;66.44;98151.72;5054838;28;20211;-68
2022/05/16 06:59:36;;;;;;;9.13;3.47;;;;;;;18.92;67.06;98142.28;5054718;28;20571;-68
2022/05/16 07:02:03;;;;;;;3.77;2.87;;;;;;;19.29;67.28;98145.50;5054929;28;20208;-68
2022/05/16 07:04:30;;;;;;;7.47;2.90;;;;;;;19.82;64.52;98149.41;5054900;28;20262;-69
2022/05/16 07:06:57;;;;;;;6.13;2.90;;;;;;;20.15;63.76;98146.03;5054803;28;20208;-69
2022/05/16 07:09:23;;;;;;;5.50;2.60;;;;;;;20.39;60.74;98147.81;5054659;28;20309;-68
2022/05/16 07:11:50;;;;;;;4.13;2.60;;;;;;;20.66;60.10;98144.69;5054179;28;20216;-69
2022/05/16 07:14:16;;;;;;;3.17;2.60;;;;;;;21.00;60.83;98159.03;5054720;28;20205;-69
2022/05/16 07:16:43;;;;;;;2.70;2.47;;;;;;;21.01;59.17;98156.03;5054426;28;20212;-69
2022/05/16 07:19:09;;;;;;;6.20;2.67;;;;;;;21.17;58.26;98162.13;5054620;28;20236;-69
2022/05/16 07:21:38;;;;;;;4.13;2.50;;;;;;;21.37;58.54;98157.34;5054333;28;20683;-69
2022/05/16 07:24:05;;;;;;;7.57;3.10;;;;;;;21.53;59.79;98153.38;5054629;28;20231;-69
2022/05/16 07:29:15;;;;;;;6.30;2.87;;;;;;;21.19;59.43;98159.94;5054062;28;20741;-69
2022/05/16 07:31:42;;;;;;;7.10;4.10;;;;;;;21.04;60.38;98157.38;5054005;28;20665;-68
2022/05/16 07:34:08;;;;;;;8.20;3.70;;;;;;;21.05;59.82;98157.09;5054118;28;20259;-68
2022/05/16 07:36:34;;;;;;;7.63;4.07;;;;;;;21.33;60.25;98169.00;5054080;28;20212;-69
2022/05/16 07:39:01;;;;;;;8.00;3.93;;;;;;;21.48;59.72;98168.88;5054101;28;20225;-69
2022/05/16 07:41:29;;;;;;;6.47;3.43;;;;;;;21.45;57.96;98169.44;5052995;28;20292;-68
2022/05/16 07:43:55;;;;;;;8.50;4.47;;;;;;;21.45;59.77;98175.66;5054220;28;20622;-69
2022/05/16 07:46:21;;;;;;;8.63;4.00;;;;;;;21.71;59.47;98179.72;5053819;28;20687;-69
2022/05/16 07:48:48;;;;;;;6.50;3.87;;;;;;;21.63;59.66;98187.66;5053859;28;20614;-69
2022/05/16 07:51:14;;;;;;;7.80;3.70;;;;;;;21.43;60.22;98177.84;5054080;28;20216;-69
2022/05/16 07:53:41;;;;;;;6.60;3.53;;;;;;;21.39;60.81;98190.31;5053666;28;20205;-69
2022/05/16 07:56:09;;;;;;;5.77;3.70;;;;;;;21.39;61.62;98192.22;5053710;28;20205;-69
2022/05/16 07:58:36;;;;;;;8.43;3.77;;;;;;;21.18;62.18;98193.47;5053579;28;20708;-70
2022/05/16 08:01:02;;;;;;;4.83;3.47;;;;;;;21.10;63.21;98194.09;5053911;28;20205;-69
2022/05/16 08:03:30;;;;;;;5.47;3.80;;;;;;;21.03;65.51;98190.91;5053371;28;20563;-69
2022/05/16 08:05:58;;;;;;;8.97;3.60;;;;;;;20.88;69.73;98194.50;5053534;28;20573;-69
2022/05/16 08:11:11;;;;;;;6.60;4.20;;;;;;;20.33;83.16;98191.31;5053518;28;20571;-69
2022/05/16 08:13:39;;;;;;;7.87;4.30;;;;;;;20.17;88.79;98193.28;5053623;28;20292;-70
2022/05/16 08:16:05;;;;;;;9.23;4.10;;;;;;;20.02;90.12;98198.72;5053314;28;20201;-70
2022/05/16 08:18:32;;;;;;;5.97;3.90;;;;;;;20.00;82.00;98195.50;5053112;28;20221;-70
2022/05/16 08:20:59;;;;;;;7.63;4.27;;;;;;;20.15;83.43;98200.84;5053830;28;20233;-70
2022/05/16 08:23:29;;;;;;;5.70;4.47;;;;;;;20.24;82.35;98206.47;5053517;28;20255;-69
2022/05/16 08:25:56;;;;;;;4.47;4.07;;;;;;;20.31;88.02;98209.69;5054014;28;20278;-69
2022/05/16 08:28:23;;;;;;;5.37;4.27;;;;;;;20.34;80.92;98207.25;5053442;28;20618;-70
2022/05/16 08:30:51;;;;;;;5.53;4.10;;;;;;;20.40;78.67;98206.16;5053441;28;20292;-69
2022/05/16 08:33:18;;;;;;;5.80;4.20;;;;;;;20.54;74.58;98207.16;5053468;28;20211;-69
2022/05/16 08:35:44;;;;;;;5.20;3.60;;;;;;;20.69;73.44;98217.03;5053260;28;20205;-69
2022/05/16 08:41:04;;;;;;;7.23;3.87;;;;;;;20.87;71.05;98225.31;5053599;28;20173;-68
2022/05/16 08:43:49;;;;;;;5.57;3.70;;;;;;;21.18;69.58;98228.63;5053260;28;20574;-69
2022/05/16 08:46:31;;;;;;;5.53;3.40;;;;;;;21.43;71.39;98221.09;5053162;28;20193;-69
2022/05/16 08:49:02;;;;;;;6.30;4.00;;;;;;;21.71;69.36;98227.66;5035573;28;20236;-69
2022/05/16 08:51:33;;;;;;;7.00;3.50;;;;;;;21.86;71.60;98228.31;5052660;28;20632;-69
2022/05/16 08:54:34;;;;;;;5.73;3.97;;;;;;;22.19;65.97;98223.84;5053298;28;20246;-69
2022/05/16 08:57:04;;;;;;;7.80;3.93;;;;;;;22.56;64.72;98234.81;5038013;28;20209;-68
2022/05/16 08:59:36;;;;;;;4.10;3.50;;;;;;;22.92;61.08;98216.97;5054062;28;20193;-69
2022/05/16 09:02:13;;;;;;;4.80;3.90;;;;;;;23.26;61.24;98206.66;5053038;28;20193;-69
2022/05/16 09:04:49;;;;;;;6.05;3.92;;;;;;;23.14;60.15;98209.81;5052985;28;20217;-69
2022/05/16 09:07:29;;;;;;;6.45;3.95;;;;;;;23.16;58.28;98214.94;5034876;28;20707;-69
2022/05/16 09:10:05;;;;;;;4.95;4.00;;;;;;;22.94;60.50;98228.31;5052529;28;20235;-70
2022/05/16 09:12:59;;;;;;;7.03;3.78;;;;;;;22.76;61.99;98227.22;5052621;28;20215;-70
2022/05/16 09:15:39;;;;;;;4.90;3.50;;;;;;;22.76;61.44;98223.69;5052881;28;20208;-70
2022/05/16 09:18:22;;;;;;;7.85;3.92;;;;;;;22.92;60.39;98227.81;5052862;28;20237;-70
2022/05/16 09:21:10;;;;;;;5.25;3.75;;;;;;;23.40;57.53;98221.09;5052987;28;20280;-69
2022/05/16 09:23:55;;;;;;;4.00;3.60;;;;;;;23.91;58.10;98224.53;5053248;28;20220;-69
2022/05/16 09:26:40;;;;;;;5.70;3.72;;;;;;;23.91;52.58;98232.69;5052631;28;20645;-70
2022/05/16 09:29:17;;;;;;;4.63;3.55;;;;;;;23.70;54.10;98232.22;5052802;28;20229;-70
2022/05/16 09:31:48;;;;;;;4.30;3.45;;;;;;;23.78;53.89;98228.03;5052929;28;20193;-70
2022/05/16 09:34:15;;;;;;;5.78;3.88;;;;;;;23.85;55.61;98239.28;5052498;28;20186;-70
2022/05/16 09:36:49;;;;;;;6.82;3.90;;;;;;;23.70;55.59;98236.84;5052499;28;20251;-69
2022/05/16 09:39:22;;;;;;;5.25;3.58;;;;;;;23.52;53.91;98237.72;5051618;28;20283;-70
2022/05/16 09:41:57;;;;;;;6.20;3.47;;;;;;;23.63;55.00;98239.13;5052022;28;20617;-70
2022/05/16 09:44:26;;;;;;;7.40;3.65;;;;;;;23.41;55.49;98236.25;5052375;28;20243;-70
2022/05/16 09:47:26;;;;;;;3.75;3.30;;;;;;;23.29;52.73;98247.56;5052124;28;20660;-70
2022/05/16 09:50:08;;;;;;;7.82;4.40;;;;;;;23.27;53.77;98249.78;5052481;28;20193;-70
2022/05/16 09:52:42;;;;;;;5.43;3.70;;;;;;;23.22;54.31;98249.88;5053033;28;20205;-70
2022/05/16 09:55:15;;;;;;;11.57;4.18;;;;;;;23.32;54.81;98251.59;5052408;28;20214;-70
2022/05/16 09:57:56;;;;;;;4.20;3.45;;;;;;;23.27;56.10;98257.09;5052204;28;20225;-70
2022/05/16 10:00:31;;;;;;;6.15;3.95;;;;;;;23.15;54.53;98259.47;5052884;28;20193;-70
2022/05/16 10:03:15;;;;;;;5.18;3.65;;;;;;;23.15;54.48;98267.59;5052877;28;20200;-70
2022/05/16 10:05:47;;;;;;;7.05;4.28;;;;;;;23.14;53.40;98266.78;5056224;28;20212;-70
2022/05/16 10:08:17;;;;;;;5.30;4.07;;;;;;;23.28;54.69;98258.72;5056055;28;20221;-70
2022/05/16 10:10:46;;;;;;;6.78;4.50;;;;;;;23.28;55.00;98264.13;5055566;28;20209;-70
2022/05/16 10:13:13;;;;;;;8.70;4.10;;;;;;;23.36;53.56;98258.06;5056120;28;20231;-70
2022/05/16 10:15:39;;;;;;;5.00;3.75;;;;;;;;;;5055705;28;20216;-71
2022/05/16 10:18:10;;;;;;;6.57;4.20;;;;;;;23.47;52.85;98263.00;5056235;28;20593;-70
2022/05/16 10:20:45;;;;;;;5.38;3.67;;;;;;;23.40;50.65;98264.50;5055715;28;20598;-70
2022/05/16 10:23:24;;;;;;;6.88;3.63;;;;;;;23.34;52.30;98262.97;5038675;28;20631;-70
2022/05/16 10:25:54;;;;;;;5.53;3.50;;;;;;;23.31;53.87;98258.94;5055486;28;20676;-70
2022/05/16 10:28:28;;;;;;;6.05;3.20;;;;;;;23.10;53.43;98262.22;5055150;28;20224;-69
2022/05/16 10:33:42;;;;;;;6.28;4.35;;;;;;;22.97;54.94;98268.41;5055386;28;20235;-69
2022/05/16 10:36:21;;;;;;;6.30;4.07;;;;;;;22.87;55.49;98272.06;5055567;28;20210;-70
2022/05/16 10:38:54;;;;;;;8.05;4.15;;;;;;;23.06;54.24;98263.94;5055177;28;20231;-70
2022/05/16 10:41:28;;;;;;;8.70;3.83;;;;;;;22.73;54.96;98273.06;5055470;28;20194;-70
2022/05/16 10:44:17;;;;;;;5.55;3.83;;;;;;;22.74;53.83;98280.13;5055415;28;20212;-70
2022/05/16 10:47:02;;;;;;;6.50;3.73;;;;;;;22.71;54.82;98280.69;5055062;28;20201;-70
2022/05/16 10:49:35;;;;;;;6.00;3.77;;;;;;;22.78;52.39;98286.53;5055127;28;20193;-70
2022/05/16 10:52:24;;;;;;;5.80;3.60;;;;;;;22.76;52.24;98273.31;5054978;28;20187;-70
2022/05/16 10:54:51;;;;;;;7.53;3.20;;;;;;;22.93;51.14;98275.50;5055589;28;20196;-70
2022/05/16 10:57:36;;;;;;;6.80;4.03;;;;;;;23.00;51.72;98275.94;5055105;28;20225;-70
2022/05/16 11:00:07;;;;;;;9.20;3.87;;;;;;;23.11;52.58;98272.78;5054645;28;20205;-70
2022/05/16 11:03:17;;;;;;;7.32;3.58;;;;;;;23.09;52.39;98279.59;5054899;28;20213;-70
2022/05/16 11:06:01;;;;;;;6.90;3.35;;;;;;;23.06;52.71;98283.69;5054761;28;20219;-70
2022/05/16 11:08:41;;;;;;;8.20;3.17;;;;;;;22.99;54.09;98279.75;5054411;28;20229;-70
2022/05/16 11:11:15;;;;;;;6.03;3.17;;;;;;;23.16;53.19;98274.63;5054269;28;20675;-70
2022/05/16 11:13:49;;;;;;;8.20;2.85;;;;;;;23.01;53.24;98277.56;5054412;28;20212;-70
2022/05/16 11:16:33;;;;;;;4.65;2.50;;;;;;;22.93;53.47;98281.72;5054673;28;20212;-70
2022/05/16 11:19:21;;;;;;;7.32;3.20;;;;;;;22.85;54.23;98292.41;5054198;28;20229;-69
2022/05/16 11:22:01;;;;;;;8.27;3.33;;;;;;;22.66;54.92;98305.94;5054472;28;20216;-70
2022/05/16 11:25:04;;;;;;;8.80;4.20;;;;;;;22.50;55.16;98311.84;5054132;28;20577;-70
2022/05/16 11:27:52;;;;;;;10.10;3.73;;;;;;;22.49;56.39;98321.88;5054784;28;20229;-70
2022/05/16 11:30:19;;;;;;;6.73;3.67;;;;;;;22.31;56.35;98325.31;5054490;28;20197;-70
2022/05/16 11:32:45;;;;;;;7.23;2.80;;;;;;;22.25;56.33;98318.31;5054679;28;20209;-70
2022/05/16 11:35:28;;;;;;;10.37;3.00;;;;;;;22.18;58.05;98323.28;5054293;28;20233;-70
2022/05/16 11:38:22;;;;;;;7.13;3.23;;;;;;;22.09;55.80;98326.88;5054209;28;20229;-70
2022/05/16 11:41:15;;;;;;;7.43;2.57;;;;;;;22.02;55.16;98324.50;5054319;28;20189;-70
2022/05/16 11:43:47;;;;;;;5.43;2.70;;;;;;;22.07;55.14;98323.66;5043328;28;20241;-70
2022/05/16 11:46:28;;;;;;;7.23;2.00;;;;;;;22.00;55.67;98320.47;5053790;28;20660;-70
2022/05/16 11:49:00;;;;;;;5.57;2.27;;;;;;;21.93;55.93;98333.56;5053705;28;20232;-70
2022/05/16 11:51:36;;;;;;;3.60;2.00;;;;;;;21.79;56.61;98343.41;5053863;28;20204;-70
2022/05/16 11:54:05;;;;;;;5.30;1.87;;;;;;;21.73;55.60;98344.53;5053838;28;20640;-70
2022/05/16 12:02:28;;;;;;;3.37;1.70;;;;;;;21.49;54.26;98357.16;5053631;28;20175;-71
2022/05/16 12:05:10;;;;;;;3.97;1.60;;;;;;;21.39;54.69;98360.72;5054058;28;20542;-70
2022/05/16 12:07:36;;;;;;;2.63;1.50;;;;;;;21.31;53.32;98357.81;5053500;28;20225;-70
2022/05/16 12:10:23;;;;;;;3.13;1.57;;;;;;;21.22;52.94;98345.97;5054181;28;20543;-70
2022/05/16 12:13:17;;;;;;;3.83;1.80;;;;;;;21.07;53.90;98346.84;5053537;28;20189;-70
2022/05/16 12:15:43;;;;;;;1.97;1.30;;;;;;;20.88;54.68;98343.13;5054084;28;20193;-70
2022/05/16 12:18:44;;;;;;;5.03;2.17;;;;;;;20.15;65.79;98352.03;5054083;28;20229;-70
2022/05/16 12:21:28;;;;;;;5.07;1.77;;;;;;;19.27;74.96;98334.47;5010741;28;20652;-70
2022/05/16 12:23:57;;;;;;;5.73;2.00;;;;;;;18.78;82.32;98344.00;5053609;28;20250;-70
2022/05/16 12:26:27;;;;;;;4.80;1.80;;;;;;;18.34;83.92;98352.72;5053439;28;20656;-70
2022/05/16 12:29:20;;;;;;;2.97;1.83;;;;;;;18.24;86.92;98356.09;5053329;28;20233;-70
2022/05/16 12:31:48;;;;;;;5.50;2.17;;;;;;;18.08;89.07;98357.09;5044720;28;20209;-69